Time;durP1;ratioP1;P1;durP2;ratioP2;P2;SDS_P1;SDS_P2;PMS_P1;PMS_P2;Temp;Humidity;BMP_temperature;BMP_pressure;BME280_temperature;BME280_humidity;BME280_pressure;Samples;Min_cycle;Max_cycle;Signal;HPM_P1;HPM_P2
2021/10/17 00:00:49;;;;;;;34.80;22.40;;;;;;;9.60;76.67;100877.55;1755691;80;21234;-59
2021/10/17 00:03:54;;;;;;;38.15;22.55;;;;;;;9.56;76.88;100870.66;1755995;81;21384;-59
2021/10/17 00:07:00;;;;;;;38.80;22.60;;;;;;;9.52;77.07;100865.67;1738754;81;21223;-58
2021/10/17 00:10:07;;;;;;;39.38;22.30;;;;;;;9.47;77.18;100866.64;1719951;82;21338;-59
2021/10/17 00:13:15;;;;;;;33.38;20.12;;;;;;;9.44;77.44;100865.09;1735181;82;21196;-59
2021/10/17 00:16:20;;;;;;;38.42;21.60;;;;;;;9.44;77.64;100865.09;1735329;81;21243;-59
2021/10/17 00:19:26;;;;;;;38.02;22.62;;;;;;;9.42;77.78;100857.55;1735269;81;21308;-59
2021/10/17 00:22:32;;;;;;;30.55;20.68;;;;;;;9.41;77.94;100854.48;1735070;82;21212;-59
2021/10/17 00:25:38;;;;;;;35.73;22.55;;;;;;;9.38;78.19;100853.44;1735192;81;22211;-59
2021/10/17 00:28:43;;;;;;;38.10;22.85;;;;;;;9.34;78.29;100852.02;1734989;82;21304;-59
2021/10/17 00:31:50;;;;;;;39.48;23.60;;;;;;;9.30;78.41;100851.13;1735007;82;21330;-60
2021/10/17 00:34:59;;;;;;;39.65;23.60;;;;;;;9.26;78.34;100855.20;1735181;81;21763;-58
2021/10/17 00:38:04;;;;;;;41.48;24.65;;;;;;;9.22;78.38;100848.31;1735452;82;21250;-59
2021/10/17 00:41:10;;;;;;;39.92;24.05;;;;;;;9.20;78.33;100851.20;1735218;81;21215;-58
2021/10/17 00:44:16;;;;;;;33.85;22.75;;;;;;;9.18;78.14;100850.48;1735316;81;21373;-59
2021/10/17 00:47:22;;;;;;;38.73;22.55;;;;;;;9.15;77.83;100850.80;1735324;82;21207;-59
2021/10/17 00:50:28;;;;;;;33.20;20.70;;;;;;;9.11;77.46;100857.60;1735272;81;21223;-61
2021/10/17 00:53:35;;;;;;;34.00;21.52;;;;;;;9.06;77.13;100847.15;1735305;82;21385;-59
2021/10/17 00:56:41;;;;;;;35.03;21.23;;;;;;;9.01;76.94;100848.11;1734659;82;21438;-60
2021/10/17 00:59:47;;;;;;;36.08;23.10;;;;;;;8.97;76.82;100850.78;1735160;81;21705;-58
2021/10/17 01:02:51;;;;;;;36.80;22.37;;;;;;;8.95;76.66;100855.56;1735247;82;22196;-59
2021/10/17 01:05:58;;;;;;;36.63;22.52;;;;;;;8.93;76.56;100855.34;1735253;81;21377;-59
2021/10/17 01:09:03;;;;;;;35.70;21.35;;;;;;;8.89;76.52;100861.64;1727967;82;21354;-58
2021/10/17 01:12:09;;;;;;;34.50;21.95;;;;;;;8.85;76.55;100847.93;1727809;83;21788;-58
2021/10/17 01:15:16;;;;;;;41.98;23.25;;;;;;;8.83;76.60;100860.03;1727953;81;21275;-59
2021/10/17 01:18:22;;;;;;;40.65;23.77;;;;;;;8.77;76.55;100852.42;1728021;83;21299;-58
2021/10/17 01:21:31;;;;;;;39.38;22.87;;;;;;;8.72;76.71;100850.16;1727699;82;21449;-59
2021/10/17 01:24:37;;;;;;;37.50;24.02;;;;;;;8.68;76.66;100852.86;1727783;81;21385;-60
2021/10/17 01:27:44;;;;;;;38.20;25.60;;;;;;;8.64;76.77;100856.05;1728040;83;21216;-59
2021/10/17 01:30:50;;;;;;;43.20;25.72;;;;;;;8.60;76.80;100860.07;1728052;81;21228;-58
2021/10/17 01:33:57;;;;;;;42.80;27.67;;;;;;;8.56;76.99;100851.33;1727893;83;21268;-59
2021/10/17 01:37:03;;;;;;;44.18;27.17;;;;;;;8.56;77.15;100854.58;1728240;82;21212;-59
2021/10/17 01:40:08;;;;;;;40.78;27.37;;;;;;;8.55;77.28;100848.75;1728229;81;21374;-58
2021/10/17 01:43:15;;;;;;;45.25;28.77;;;;;;;8.56;77.33;100846.39;1728088;83;21366;-58
2021/10/17 01:46:28;;;;;;;46.65;29.35;;;;;;;8.53;77.32;100852.99;1727960;81;21244;-58
2021/10/17 01:49:33;;;;;;;44.65;27.73;;;;;;;8.51;77.34;100852.80;1727997;81;21784;-59
2021/10/17 01:52:40;;;;;;;38.85;26.33;;;;;;;8.46;77.32;100851.90;1727920;82;21370;-60
2021/10/17 01:55:50;;;;;;;41.55;26.25;;;;;;;8.41;77.38;100852.85;1693896;82;21239;-59
2021/10/17 01:58:58;;;;;;;38.90;25.75;;;;;;;8.34;77.38;100852.25;1728670;82;21354;-59
2021/10/17 02:02:07;;;;;;;43.38;26.95;;;;;;;8.25;77.53;100858.58;1727942;82;21216;-59
2021/10/17 02:05:14;;;;;;;37.38;25.97;;;;;;;8.18;77.75;100857.44;1727940;81;21378;-59
2021/10/17 02:08:20;;;;;;;40.83;26.77;;;;;;;8.08;77.70;100860.69;1725000;81;21377;-57
2021/10/17 02:11:26;;;;;;;43.50;28.20;;;;;;;8.00;77.89;100864.66;1717793;81;21887;-59
2021/10/17 02:14:32;;;;;;;42.25;28.20;;;;;;;7.90;77.81;100870.13;1717485;82;21187;-59
2021/10/17 02:17:40;;;;;;;45.28;28.73;;;;;;;7.78;77.94;100875.91;1717211;82;21208;-59
2021/10/17 02:20:48;;;;;;;42.90;27.50;;;;;;;7.68;78.18;100876.41;1717061;82;21421;-58
2021/10/17 02:23:53;;;;;;;41.60;26.73;;;;;;;7.59;78.54;100874.08;1717522;83;21286;-59
2021/10/17 02:26:59;;;;;;;39.67;27.55;;;;;;;7.52;78.74;100876.52;1695452;83;21429;-59
2021/10/17 02:30:08;;;;;;;44.25;28.23;;;;;;;7.45;78.77;100869.91;1717803;82;21219;-59
2021/10/17 02:33:17;;;;;;;45.33;27.40;;;;;;;7.37;78.87;100873.01;1717610;83;21503;-59
2021/10/17 02:36:22;;;;;;;43.33;27.82;;;;;;;7.30;79.02;100869.12;1717127;82;21330;-60
2021/10/17 02:39:29;;;;;;;42.98;28.23;;;;;;;7.22;79.28;100873.94;1717604;82;21384;-59
2021/10/17 02:42:36;;;;;;;43.05;27.27;;;;;;;7.17;79.50;100872.62;1717784;83;21735;-60
2021/10/17 02:45:46;;;;;;;43.78;28.00;;;;;;;7.10;79.56;100870.97;1717676;82;21350;-58
2021/10/17 02:48:51;;;;;;;45.60;29.10;;;;;;;7.05;79.81;100880.09;1717239;83;21208;-59
2021/10/17 02:52:00;;;;;;;43.60;29.05;;;;;;;7.02;80.16;100877.65;1717177;83;21199;-58
2021/10/17 02:55:06;;;;;;;47.30;29.52;;;;;;;7.01;80.41;100878.63;1717789;81;21334;-59
2021/10/17 02:58:11;;;;;;;46.92;28.32;;;;;;;6.98;80.52;100887.57;1717593;83;21216;-59
2021/10/17 03:01:19;;;;;;;43.63;29.20;;;;;;;6.94;80.63;100885.66;1718096;82;21419;-59
2021/10/17 03:04:26;;;;;;;43.98;27.82;;;;;;;6.92;80.78;100884.05;1695378;82;21824;-59
2021/10/17 03:07:32;;;;;;;46.18;28.98;;;;;;;6.88;80.76;100886.72;1716474;83;21326;-60
2021/10/17 03:10:37;;;;;;;47.83;28.65;;;;;;;6.82;80.66;100888.12;1743056;80;21314;-58
2021/10/17 03:13:42;;;;;;;43.38;27.27;;;;;;;6.76;80.73;100887.32;1756096;81;21254;-59
2021/10/17 03:16:50;;;;;;;43.00;27.20;;;;;;;6.71;80.67;100895.03;1753940;81;21345;-58
2021/10/17 03:19:56;;;;;;;45.30;27.98;;;;;;;6.62;80.50;100886.36;1732305;81;21243;-59
2021/10/17 03:23:04;;;;;;;50.67;28.25;;;;;;;6.56;80.63;100884.69;1735245;82;21795;-59
2021/10/17 03:26:11;;;;;;;50.03;29.60;;;;;;;6.53;80.87;100883.12;1731097;81;21361;-59
2021/10/17 03:29:17;;;;;;;50.12;30.52;;;;;;;6.48;80.78;100885.38;1722021;83;21223;-58
2021/10/17 03:32:25;;;;;;;49.18;28.90;;;;;;;6.43;80.76;100896.30;1722425;83;21405;-60
2021/10/17 03:35:30;;;;;;;51.42;30.60;;;;;;;6.39;80.86;100891.62;1756041;80;21376;-58
2021/10/17 03:38:38;;;;;;;52.00;29.80;;;;;;;6.34;80.86;100889.84;1755745;81;21341;-59
2021/10/17 03:41:46;;;;;;;48.33;29.27;;;;;;;6.30;80.99;100884.30;1756586;81;21865;-59
2021/10/17 03:44:53;;;;;;;48.20;29.55;;;;;;;6.29;81.19;100887.16;1756504;80;21412;-58
2021/10/17 03:47:58;;;;;;;50.25;29.42;;;;;;;6.27;81.32;100894.09;1756755;81;21203;-60
2021/10/17 03:51:08;;;;;;;50.03;30.05;;;;;;;6.29;81.59;100894.82;1735500;81;21338;-58
2021/10/17 03:54:11;;;;;;;56.92;31.68;;;;;;;6.34;81.79;100893.05;1735533;81;21215;-58
2021/10/17 03:57:17;;;;;;;53.25;33.50;;;;;;;6.35;81.79;100892.91;1756608;81;21337;-60
2021/10/17 04:00:26;;;;;;;48.85;29.55;;;;;;;6.40;82.19;100896.57;1756311;80;21431;-60
2021/10/17 04:03:34;;;;;;;54.60;31.15;;;;;;;6.45;82.53;100897.89;1756669;81;21448;-59
2021/10/17 04:06:39;;;;;;;50.78;31.05;;;;;;;6.45;82.31;100903.83;1752899;81;21389;-59
2021/10/17 04:09:49;;;;;;;49.33;30.43;;;;;;;6.43;82.07;100900.38;1755049;80;21944;-59
2021/10/17 04:12:55;;;;;;;50.38;29.95;;;;;;;6.43;82.22;100910.76;1687411;85;21429;-59
2021/10/17 04:16:02;;;;;;;53.17;31.23;;;;;;;6.43;82.33;100901.24;1687361;83;21239;-59
2021/10/17 04:19:08;;;;;;;46.63;29.77;;;;;;;6.41;82.25;100904.59;1686419;83;21764;-58
2021/10/17 04:22:13;;;;;;;48.65;30.15;;;;;;;6.44;82.34;100912.47;1687136;85;21721;-59
2021/10/17 04:25:19;;;;;;;49.18;31.90;;;;;;;6.43;82.29;100910.76;1687199;83;21235;-58
2021/10/17 04:28:26;;;;;;;49.45;33.20;;;;;;;6.46;82.55;100909.61;1687367;85;21208;-59
2021/10/17 04:31:32;;;;;;;58.25;36.90;;;;;;;6.51;82.75;100910.94;1687225;85;21385;-59
2021/10/17 04:34:38;;;;;;;50.30;32.08;;;;;;;6.55;82.87;100912.38;1686663;83;21373;-58
2021/10/17 04:37:46;;;;;;;50.00;31.93;;;;;;;6.63;83.06;100919.34;1686428;85;21223;-59
2021/10/17 04:40:52;;;;;;;61.80;35.58;;;;;;;6.69;83.19;100921.51;1687561;83;21401;-58
2021/10/17 04:43:58;;;;;;;61.88;35.45;;;;;;;6.74;83.22;100924.68;1686597;85;21219;-59
2021/10/17 04:47:03;;;;;;;58.42;35.25;;;;;;;6.78;83.17;100920.70;1686798;85;21223;-59
2021/10/17 04:50:08;;;;;;;56.23;36.13;;;;;;;6.84;83.25;100926.94;1686479;83;21763;-59
2021/10/17 04:53:14;;;;;;;57.90;36.63;;;;;;;6.90;83.27;100924.15;1686068;85;21906;-59
2021/10/17 04:56:21;;;;;;;59.48;36.17;;;;;;;6.92;83.02;100926.23;1686397;83;21934;-59
2021/10/17 04:59:26;;;;;;;62.15;40.83;;;;;;;6.91;82.73;100925.89;1687144;83;21243;-59
2021/10/17 05:02:33;;;;;;;71.92;41.05;;;;;;;6.89;82.74;100921.95;1686960;85;21446;-58
2021/10/17 05:05:41;;;;;;;64.97;38.40;;;;;;;6.91;82.88;100925.89;1704102;83;21366;-60
2021/10/17 05:08:46;;;;;;;66.82;40.10;;;;;;;6.92;82.88;100927.59;1715283;83;21215;-59
2021/10/17 05:11:53;;;;;;;66.37;37.65;;;;;;;6.95;82.96;100929.55;1726408;80;21241;-60
2021/10/17 05:15:01;;;;;;;62.60;38.73;;;;;;;7.01;83.19;100928.11;1773319;79;21363;-60
2021/10/17 05:18:06;;;;;;;65.15;38.55;;;;;;;7.08;83.43;100934.24;1773423;81;21201;-59
2021/10/17 05:21:13;;;;;;;63.68;39.75;;;;;;;7.14;83.46;100931.45;1773428;79;21713;-59
2021/10/17 05:24:20;;;;;;;61.63;38.08;;;;;;;7.20;83.43;100942.64;1773408;79;21202;-60
2021/10/17 05:27:26;;;;;;;62.35;37.08;;;;;;;7.26;83.47;100942.06;1773349;81;21344;-59
2021/10/17 05:30:34;;;;;;;60.05;35.70;;;;;;;7.32;83.60;100945.61;1773425;79;21359;-59
2021/10/17 05:33:41;;;;;;;60.25;37.33;;;;;;;7.40;83.54;100948.45;1773313;81;21403;-59
2021/10/17 05:36:48;;;;;;;59.73;34.78;;;;;;;7.49;83.54;100942.18;1765977;80;21387;-60
2021/10/17 05:39:53;;;;;;;62.08;36.00;;;;;;;7.60;83.52;100948.84;1773349;79;21213;-60
2021/10/17 05:43:01;;;;;;;57.50;35.73;;;;;;;7.72;83.66;100956.39;1773449;81;21328;-59
2021/10/17 05:46:10;;;;;;;57.95;36.63;;;;;;;7.86;83.71;100953.22;1775126;79;21229;-60
2021/10/17 05:49:16;;;;;;;51.50;32.67;;;;;;;7.97;83.79;100950.83;1773400;79;21245;-59
2021/10/17 05:52:22;;;;;;;51.98;33.42;;;;;;;8.13;83.81;100952.46;1773510;81;21821;-59
2021/10/17 05:55:27;;;;;;;46.58;31.90;;;;;;;8.25;83.63;100947.22;1773446;79;21355;-59
2021/10/17 05:58:33;;;;;;;54.23;33.73;;;;;;;8.36;83.46;100952.50;1773353;81;21414;-59
2021/10/17 06:01:40;;;;;;;52.08;34.43;;;;;;;8.44;83.38;100954.86;1773398;81;21324;-61
2021/10/17 06:04:49;;;;;;;53.33;34.10;;;;;;;8.56;83.27;100952.81;1773449;79;21257;-60
2021/10/17 06:07:55;;;;;;;52.85;35.10;;;;;;;8.65;83.10;100951.41;1773352;81;21363;-59
2021/10/17 06:11:02;;;;;;;56.60;34.05;;;;;;;8.72;82.93;100941.59;1773361;79;21391;-59
2021/10/17 06:14:08;;;;;;;53.55;33.95;;;;;;;8.82;82.75;100952.47;1755497;80;21379;-61
2021/10/17 06:17:14;;;;;;;51.30;33.13;;;;;;;8.93;82.66;100959.10;1740261;81;21300;-58
2021/10/17 06:20:21;;;;;;;49.95;33.00;;;;;;;9.05;82.63;100959.27;1752717;81;21386;-60
2021/10/17 06:23:30;;;;;;;54.58;34.53;;;;;;;9.15;82.44;100955.95;1729538;81;21376;-59
2021/10/17 06:26:35;;;;;;;57.10;35.30;;;;;;;9.24;82.12;100967.36;1719350;82;21894;-59
2021/10/17 06:29:40;;;;;;;50.38;32.90;;;;;;;9.27;81.72;100956.12;1743523;81;21323;-60
2021/10/17 06:32:45;;;;;;;51.45;33.20;;;;;;;9.30;81.44;100953.08;1743359;82;21886;-62
2021/10/17 06:35:51;;;;;;;57.30;31.37;;;;;;;9.27;80.82;100962.95;1743434;81;21341;-60
2021/10/17 06:38:56;;;;;;;49.83;30.57;;;;;;;9.23;80.55;100964.25;1743511;82;21338;-60
2021/10/17 06:42:04;;;;;;;50.90;32.17;;;;;;;9.19;80.17;100968.81;1743459;82;21345;-61
2021/10/17 06:45:14;;;;;;;45.92;29.87;;;;;;;9.13;79.99;100971.66;1718526;82;21735;-62
2021/10/17 06:48:21;;;;;;;50.43;30.15;;;;;;;9.12;79.85;100969.09;1743346;82;21349;-60
2021/10/17 06:51:27;;;;;;;46.08;29.92;;;;;;;9.07;79.73;100969.52;1742832;81;21397;-60
2021/10/17 06:54:37;;;;;;;42.83;27.62;;;;;;;9.04;79.67;100975.28;1743274;81;21239;-63
2021/10/17 06:57:43;;;;;;;44.23;27.32;;;;;;;9.08;79.87;100972.09;1742473;82;21346;-60
2021/10/17 07:00:50;;;;;;;43.52;27.82;;;;;;;9.10;79.66;100974.70;1743044;81;21354;-61
2021/10/17 07:03:58;;;;;;;43.90;27.40;;;;;;;9.09;79.55;100974.33;1743332;82;21381;-60
2021/10/17 07:07:05;;;;;;;44.33;28.27;;;;;;;9.11;79.49;100973.67;1743547;82;21192;-59
2021/10/17 07:10:12;;;;;;;46.40;29.75;;;;;;;9.10;79.41;100971.97;1751194;81;21397;-60
2021/10/17 07:13:23;;;;;;;46.10;29.98;;;;;;;9.10;79.55;100971.97;1740932;81;21212;-61
2021/10/17 07:16:30;;;;;;;45.65;29.00;;;;;;;9.09;79.59;100971.59;1744510;82;22097;-61
2021/10/17 07:19:34;;;;;;;44.60;28.67;;;;;;;9.06;79.77;100978.73;1744680;81;21295;-61
2021/10/17 07:22:40;;;;;;;46.68;29.72;;;;;;;9.04;79.76;100972.55;1749942;80;21717;-60
2021/10/17 07:25:47;;;;;;;43.10;26.97;;;;;;;8.98;79.79;100971.80;1744595;81;21263;-61
2021/10/17 07:28:54;;;;;;;41.33;26.33;;;;;;;8.92;79.96;100973.77;1810144;79;21334;-60
2021/10/17 07:32:02;;;;;;;43.25;26.02;;;;;;;8.86;80.14;100979.84;1778752;80;21377;-60
2021/10/17 07:35:08;;;;;;;42.93;27.62;;;;;;;8.83;80.18;100984.24;1775380;79;21701;-60
2021/10/17 07:38:13;;;;;;;40.80;27.27;;;;;;;8.73;80.26;100983.41;1747858;82;21215;-60
2021/10/17 07:41:20;;;;;;;43.38;27.60;;;;;;;8.69;80.35;100989.66;1816683;77;21223;-61
2021/10/17 07:44:28;;;;;;;45.20;28.95;;;;;;;8.62;80.42;100986.33;1816317;77;21353;-62
2021/10/17 07:47:43;;;;;;;41.75;26.90;;;;;;;8.45;80.51;100983.01;1812394;79;21373;-60
2021/10/17 07:50:51;;;;;;;35.73;26.02;;;;;;;8.37;81.03;100984.24;1799178;78;21350;-60
2021/10/17 07:53:57;;;;;;;40.40;26.27;;;;;;;8.34;81.29;100992.73;1817173;79;21358;-61
2021/10/17 07:57:06;;;;;;;39.90;26.57;;;;;;;8.31;81.49;100994.39;1778822;80;21836;-61
2021/10/17 08:00:15;;;;;;;49.67;28.05;;;;;;;8.30;81.77;100991.28;1775879;79;21246;-61
2021/10/17 08:03:39;;;;;;;40.67;25.43;;;;;;;8.32;81.98;100994.73;1770076;80;21366;-60
2021/10/17 08:06:54;;;;;;;44.55;25.88;;;;;;;8.35;82.21;100990.34;1817419;78;21246;-60
2021/10/17 08:10:02;;;;;;;43.48;26.68;;;;;;;8.37;82.26;100993.80;1817163;77;21306;-62
2021/10/17 08:13:14;;;;;;;41.08;25.08;;;;;;;8.46;82.35;101000.59;1778481;80;21242;-61
2021/10/17 08:16:22;;;;;;;39.98;25.08;;;;;;;8.56;82.15;100992.38;1786518;79;21248;-60
2021/10/17 08:19:29;;;;;;;37.58;24.60;;;;;;;8.70;82.11;100991.41;1794562;78;21205;-60
2021/10/17 08:22:37;;;;;;;37.23;23.12;;;;;;;8.89;81.99;100989.97;1794056;80;21259;-60
2021/10/17 08:25:43;;;;;;;34.35;23.35;;;;;;;9.01;81.60;100991.48;1749867;80;21238;-61
2021/10/17 08:28:48;;;;;;;33.73;22.58;;;;;;;9.04;81.17;100984.34;1735631;82;21183;-61
2021/10/17 08:31:55;;;;;;;37.17;24.35;;;;;;;9.09;81.27;100990.72;1735668;82;21310;-61
2021/10/17 08:35:03;;;;;;;36.15;22.58;;;;;;;9.16;81.44;100990.47;1736772;81;21883;-62
2021/10/17 08:38:10;;;;;;;34.70;22.55;;;;;;;9.24;81.48;100987.84;1736071;82;21187;-60
2021/10/17 08:41:15;;;;;;;35.60;24.25;;;;;;;9.31;81.30;100983.47;1735831;81;21737;-59
2021/10/17 08:44:31;;;;;;;34.27;23.27;;;;;;;9.42;81.45;100981.05;1736786;81;21224;-60
2021/10/17 08:47:41;;;;;;;36.55;23.75;;;;;;;9.57;81.24;100974.89;1736389;82;21779;-60
2021/10/17 08:50:48;;;;;;;34.53;22.30;;;;;;;9.69;81.00;100975.00;1737043;81;21219;-63
2021/10/17 08:54:01;;;;;;;34.85;22.32;;;;;;;9.84;80.75;100980.79;1736133;82;21353;-62
2021/10/17 08:57:08;;;;;;;33.53;22.02;;;;;;;9.95;80.40;100971.84;1737090;82;21357;-62
2021/10/17 09:00:40;;;;;;;34.38;23.40;;;;;;;10.11;80.21;100965.19;1736017;81;21215;-62
2021/10/17 09:03:48;;;;;;;43.83;27.87;;;;;;;10.25;79.71;100964.61;1735804;82;21716;-62
2021/10/17 09:06:58;;;;;;;33.53;23.42;;;;;;;10.39;79.20;100965.39;1736117;81;21238;-61
2021/10/17 09:10:23;;;;;;;40.38;25.23;;;;;;;10.50;78.63;100962.88;1733897;81;21266;-60
2021/10/17 09:13:27;;;;;;;;;;;;;;;10.62;78.12;100959.37;1734661;81;21346;-60
2021/10/17 09:16:33;;;;;;;27.70;19.48;;;;;;;10.73;77.50;100952.25;1740422;79;20591;-60
2021/10/17 09:19:41;;;;;;;32.98;21.73;;;;;;;10.82;77.01;100954.00;1741916;81;21250;-61
2021/10/17 09:22:47;;;;;;;34.43;22.82;;;;;;;10.95;76.76;100948.93;1740970;82;21332;-61
2021/10/17 09:25:52;;;;;;;32.23;20.70;;;;;;;11.13;76.71;100951.08;1744721;80;21554;-60
2021/10/17 09:28:58;;;;;;;34.43;22.00;;;;;;;11.25;75.95;100939.64;1739137;81;21187;-61
2021/10/17 09:32:03;;;;;;;33.50;22.50;;;;;;;11.38;75.44;100943.27;1742749;81;21247;-61
2021/10/17 09:35:11;;;;;;;35.52;22.87;;;;;;;11.49;74.71;100938.34;1739831;81;21199;-60
2021/10/17 09:38:24;;;;;;;34.60;23.35;;;;;;;11.61;74.22;100931.99;1738614;82;21191;-60
2021/10/17 09:41:35;;;;;;;37.00;24.37;;;;;;;11.71;73.49;100932.23;1740106;82;21193;-60
2021/10/17 09:44:47;;;;;;;35.48;24.05;;;;;;;11.83;73.23;100934.11;1740948;81;21378;-60
2021/10/17 09:47:54;;;;;;;39.53;25.37;;;;;;;11.94;73.08;100925.54;1741285;82;21242;-60
2021/10/17 09:51:11;;;;;;;41.35;25.88;;;;;;;12.05;72.80;100926.56;1740370;81;21222;-60
2021/10/17 09:54:16;;;;;;;39.30;26.60;;;;;;;12.15;72.53;100921.77;1717099;82;21200;-60
2021/10/17 09:57:22;;;;;;;44.75;30.20;;;;;;;12.22;71.88;100918.69;1726775;81;21845;-61
2021/10/17 10:00:28;;;;;;;48.90;31.27;;;;;;;12.25;71.56;100921.08;1757941;81;21571;-60
2021/10/17 10:03:34;;;;;;;40.43;27.82;;;;;;;12.32;71.79;100916.59;1750253;81;21704;-60
2021/10/17 10:06:40;;;;;;;43.45;28.77;;;;;;;12.43;71.91;100915.39;1743719;81;21740;-61
2021/10/17 10:09:46;;;;;;;40.33;27.58;;;;;;;12.55;71.68;100914.84;1757984;81;21708;-60
2021/10/17 10:12:51;;;;;;;42.33;29.75;;;;;;;12.65;70.98;100914.14;1757864;81;21188;-61
2021/10/17 10:15:58;;;;;;;43.48;29.25;;;;;;;12.75;70.27;100896.91;1734891;80;21219;-62
2021/10/17 10:19:13;;;;;;;43.58;28.55;;;;;;;12.83;69.57;100891.39;1743886;80;21208;-61
2021/10/17 10:22:22;;;;;;;47.48;29.92;;;;;;;12.94;69.26;100891.50;1744004;80;21196;-61
2021/10/17 10:25:28;;;;;;;39.70;27.27;;;;;;;13.04;69.03;100880.69;1742695;81;21784;-60
2021/10/17 10:28:34;;;;;;;40.43;28.40;;;;;;;13.12;68.46;100877.90;1741443;82;21748;-61
2021/10/17 10:31:56;;;;;;;40.17;28.07;;;;;;;13.19;68.10;100876.12;1741767;82;21191;-61
2021/10/17 10:35:06;;;;;;;40.55;27.80;;;;;;;13.28;67.63;100873.69;1741633;82;21585;-61
2021/10/17 10:38:10;;;;;;;41.05;27.22;;;;;;;13.39;67.25;100868.28;1741855;82;21188;-61
2021/10/17 10:41:31;;;;;;;37.13;25.77;;;;;;;13.45;66.67;100871.16;1742339;82;21805;-60
2021/10/17 10:44:43;;;;;;;35.52;25.48;;;;;;;13.46;66.40;100867.90;1742843;82;21396;-60
2021/10/17 10:47:49;;;;;;;37.65;25.60;;;;;;;13.44;65.82;100862.58;1743301;82;21848;-60
2021/10/17 10:51:01;;;;;;;32.67;23.75;;;;;;;13.43;65.75;100864.97;1743506;82;21248;-61
2021/10/17 10:54:07;;;;;;;30.52;21.25;;;;;;;13.52;65.87;100859.74;1742939;82;21216;-59
2021/10/17 10:57:26;;;;;;;29.55;20.70;;;;;;;13.68;65.59;100860.67;1742578;82;21366;-60
2021/10/17 11:00:35;;;;;;;26.87;19.62;;;;;;;13.84;65.07;100853.66;1743073;82;21267;-60
2021/10/17 11:03:52;;;;;;;29.05;19.05;;;;;;;13.97;64.22;100852.52;1716398;81;21185;-60
2021/10/17 11:07:19;;;;;;;28.50;20.48;;;;;;;14.04;63.73;100840.56;1737518;82;21192;-60
2021/10/17 11:10:36;;;;;;;25.95;18.85;;;;;;;14.17;63.70;100844.91;1738421;81;21783;-64
2021/10/17 11:13:50;;;;;;;31.77;20.57;;;;;;;14.30;62.76;100841.54;1737955;81;21866;-63
2021/10/17 11:16:57;;;;;;;26.52;19.50;;;;;;;14.32;62.43;100833.41;1738227;81;21417;-61
2021/10/17 11:20:03;;;;;;;49.53;31.25;;;;;;;14.40;62.45;100831.94;1737116;79;21370;-61
2021/10/17 11:23:08;;;;;;;37.55;24.77;;;;;;;14.53;62.24;100832.66;1735738;82;21353;-62
2021/10/17 11:26:19;;;;;;;30.60;21.55;;;;;;;14.60;62.09;100826.73;1736182;81;21440;-62
2021/10/17 11:29:25;;;;;;;31.93;22.07;;;;;;;14.65;61.50;100834.73;1735789;81;21903;-62
2021/10/17 11:32:30;;;;;;;23.95;18.17;;;;;;;14.69;61.23;100825.56;1745283;81;21196;-62
2021/10/17 11:35:41;;;;;;;23.52;17.20;;;;;;;14.75;60.87;100831.69;1737440;80;21351;-61
2021/10/17 11:38:48;;;;;;;23.27;17.57;;;;;;;14.80;60.56;100819.56;1734694;82;21180;-62
2021/10/17 11:41:54;;;;;;;20.27;15.10;;;;;;;14.83;60.63;100822.80;1735197;82;21212;-61
2021/10/17 11:44:59;;;;;;;23.02;15.98;;;;;;;14.91;60.17;100820.45;1738040;81;21212;-63
2021/10/17 11:48:07;;;;;;;21.75;15.10;;;;;;;14.93;59.84;100816.98;1740187;80;21166;-63
2021/10/17 11:51:14;;;;;;;19.60;13.90;;;;;;;15.01;59.42;100820.47;1740437;82;21204;-65
2021/10/17 11:54:20;;;;;;;21.27;14.55;;;;;;;15.02;58.75;100822.70;1741439;80;21212;-59
2021/10/17 11:57:39;;;;;;;20.05;14.78;;;;;;;15.10;58.54;100818.97;1740421;82;21569;-61
2021/10/17 12:00:45;;;;;;;18.77;14.25;;;;;;;15.12;58.47;100824.64;1740781;81;21212;-61
2021/10/17 12:04:00;;;;;;;23.32;16.15;;;;;;;15.11;58.30;100816.02;1740407;81;21196;-62
2021/10/17 12:07:07;;;;;;;19.42;13.05;;;;;;;15.21;58.04;100816.56;1744604;80;21193;-61
2021/10/17 12:10:13;;;;;;;18.10;12.35;;;;;;;15.32;57.25;100820.19;1749701;80;21303;-60
2021/10/17 12:13:20;;;;;;;17.45;12.25;;;;;;;15.36;56.45;100807.73;1737604;80;21199;-61
2021/10/17 12:16:27;;;;;;;22.27;14.43;;;;;;;15.37;56.35;100809.42;1730838;81;21265;-61
2021/10/17 12:19:33;;;;;;;20.97;14.65;;;;;;;15.39;56.18;100805.98;1754795;78;21222;-62
2021/10/17 12:22:40;;;;;;;21.17;13.60;;;;;;;15.38;56.58;100801.50;1796607;79;21839;-60
2021/10/17 12:26:03;;;;;;;21.27;13.32;;;;;;;15.44;56.44;100814.53;1820026;77;21384;-60
2021/10/17 12:29:23;;;;;;;14.47;11.03;;;;;;;15.52;56.28;100813.02;1819956;77;21329;-59
2021/10/17 12:32:28;;;;;;;17.20;11.73;;;;;;;15.66;55.91;100807.09;1819686;79;21341;-60
2021/10/17 12:35:48;;;;;;;15.32;12.28;;;;;;;15.70;54.94;100812.53;1819762;77;21404;-59
2021/10/17 12:38:51;;;;;;;18.27;13.20;;;;;;;15.74;54.86;100811.96;1819118;79;21187;-61
2021/10/17 12:42:03;;;;;;;16.42;12.50;;;;;;;15.74;55.08;100811.96;1819128;79;21175;-60
2021/10/17 12:45:07;;;;;;;18.67;11.68;;;;;;;15.72;55.15;100818.72;1802906;78;21831;-60
2021/10/17 12:48:15;;;;;;;16.05;11.73;;;;;;;15.59;54.64;100820.83;1819481;79;21361;-60
2021/10/17 12:51:48;;;;;;;15.93;11.45;;;;;;;15.38;54.70;100813.92;1819068;77;21361;-60
2021/10/17 12:54:58;;;;;;;15.80;12.25;;;;;;;15.24;55.18;100812.03;1808996;78;21179;-60
2021/10/17 12:58:15;;;;;;;14.43;10.70;;;;;;;15.10;55.68;100816.21;1792712;79;21338;-61
2021/10/17 13:01:22;;;;;;;16.42;11.63;;;;;;;14.96;55.93;100817.46;1808535;78;21249;-60
2021/10/17 13:04:28;;;;;;;15.98;11.05;;;;;;;14.80;56.54;100816.30;1789017;78;21405;-62
2021/10/17 13:07:37;;;;;;;18.80;12.28;;;;;;;14.72;56.87;100815.02;1809297;79;21736;-61
2021/10/17 13:10:43;;;;;;;18.77;12.50;;;;;;;14.59;56.95;100815.35;1809316;78;21794;-61
2021/10/17 13:13:49;;;;;;;16.45;10.82;;;;;;;14.46;57.18;100816.02;1809193;79;21265;-60
2021/10/17 13:16:55;;;;;;;14.13;9.35;;;;;;;14.33;57.19;100806.73;1809241;79;21265;-61
2021/10/17 13:20:02;;;;;;;13.20;8.65;;;;;;;14.23;57.46;100811.62;1808729;78;21824;-60
2021/10/17 13:23:09;;;;;;;12.98;7.53;;;;;;;14.26;57.22;100815.41;1770249;81;21223;-61
2021/10/17 13:26:15;;;;;;;10.72;7.33;;;;;;;14.32;56.99;100810.51;1752007;79;21224;-61
2021/10/17 13:29:19;;;;;;;10.70;5.95;;;;;;;14.37;56.69;100817.69;1712765;82;21259;-60
2021/10/17 13:32:33;;;;;;;14.40;6.40;;;;;;;14.39;55.31;100816.47;1746086;82;21559;-60
2021/10/17 13:35:32;;;;;;;9.60;4.75;;;;;;;14.36;55.04;100820.13;1758067;80;21215;-61
2021/10/17 13:38:37;;;;;;;12.93;5.22;;;;;;;14.32;54.68;100823.77;1741682;82;21387;-61
2021/10/17 13:41:42;;;;;;;8.55;5.97;;;;;;;14.29;54.56;100827.42;1740118;82;21249;-60
2021/10/17 13:44:48;;;;;;;12.15;6.30;;;;;;;14.26;54.30;100834.69;1739716;81;21207;-61
2021/10/17 13:47:53;;;;;;;10.13;5.55;;;;;;;14.16;54.35;100832.71;1740672;82;22047;-60
2021/10/17 13:51:01;;;;;;;10.10;5.60;;;;;;;14.04;54.53;100835.57;1740590;81;21237;-62
2021/10/17 13:54:07;;;;;;;11.22;6.60;;;;;;;13.86;54.45;100836.45;1736766;81;21171;-62
2021/10/17 13:57:14;;;;;;;12.78;7.10;;;;;;;13.71;54.84;100843.28;1745287;81;21211;-61
2021/10/17 14:00:27;;;;;;;15.05;7.92;;;;;;;13.57;55.26;100837.21;1734966;81;21977;-60
2021/10/17 14:03:31;;;;;;;12.00;7.30;;;;;;;13.50;55.66;100843.09;1728650;82;21162;-60
2021/10/17 14:06:37;;;;;;;16.30;8.18;;;;;;;13.42;56.01;100840.41;1744804;82;21532;-61
2021/10/17 14:09:46;;;;;;;16.23;7.70;;;;;;;13.36;56.30;100840.63;1745950;80;21368;-60
2021/10/17 14:12:55;;;;;;;19.10;8.23;;;;;;;13.31;56.58;100839.45;1716366;83;21251;-61
2021/10/17 14:16:00;;;;;;;14.45;8.18;;;;;;;13.25;56.87;100838.30;1727521;81;21440;-61
2021/10/17 14:19:05;;;;;;;17.42;9.18;;;;;;;13.20;57.19;100839.36;1751975;80;21199;-61